Aérodrome :
LOGIN :

S'inscrire | Disclaimer

   EN    FR    IT 

 










Légende :    VFR   VFR Marginal   IFR   IFR Intensif   IFR Très Intensif
Visi : 
Plafond : 
>= 8 km
>= 3000ft
5 à 8 km
1000 à 3000 ft
1500m à 5 km
500 à 1000 ft
800 à 1500m
200 à 500 ft
< 800m
< 200 ft
Symboles :   Orages  Brouillard  Fortes neiges  Fortes précipitations  Vent > 20 kt
SIGMETs :   Divers  Orages  Givrage  Turbulence  Onde Orograph.  Cendres Volcan.






- Altitude de l'aérodrome : 243 ft
- Code IATA : HOV


ENOV - Ørsta-Volda , Hovden

DERNIER METAR :
  • 081320Z 24004KT 9999 VCSH FEW015 SCT025 BKN035 11/08 Q1011 RMK WIND 2175FT 25008KT

METARs EXPIRÉS :
  • 081250Z 27006KT 9999 -SHRA SCT020 BKN030 11/05 Q1011 RMK WIND 2175FT 27013KT
  • 081220Z 24005KT VCSH SCT025 BKN044 11/07 Q1010 RMK WIND 2175FT 26011KT
  • 081150Z 23007KT -SHRA FEW015 SCT025 BKN039 10/07 Q1010 RMK WIND 2175FT 26012KT
  • 081120Z 22004KT 180V290 -SHRA FEW020 BKN033 10/08 Q1010 RMK WIND 2175FT 27015KT
  • 081050Z VRB03KT -SHRA FEW018 SCT027 BKN035 10/07 Q1010 RMK WIND 2175FT 26010KT

TAF N/A



MET'MAP, la Météo Aéronautique d'un coup d'oeil ! - Copyright ORBIFLY Décembre 2007 - Disclaimer

ORBIFLY MET'MAP TEAM :

Programmation & Développement : Alexandra Zaïnal
Sur une idée originale de : Baudouin d'Aumeries
Assistance à la programmation : Marc-Olivier Méhu
Soutien technique & logistique : Manuel Goepfert

Contact : metmap@orbifly.com




SOURCES & CREDITS :

   NOAA